DAUH/HME METAR and TAF weather

Enter ICAO airport designator
Station Type Date Time Source
DAUH METAR 2020/08/15 10:30 UTC NOAA

DAUH 151030Z 13008KT CAVOK 41/12 Q1013


Station Type Date Time Source
DAUH Decoded METAR 2020/08/15 10:30 UTC NOAA

Hassi-Messaoud, Algeria (DAUH) 31-40N 006-09E 142M
Aug 15, 2020 - 06:30 AM EDT / 2020.08.15 1030 UTC
Wind: from the SE (130 degrees) at 9 MPH (8 KT):0
Visibility: greater than 7 mile(s):0
Temperature: 105 F (41 C)
Heat index: 103.1 F (39.5 C):1
Dew Point: 53 F (12 C)
Relative Humidity: 18%
Pressure (altimeter): 29.91 in. Hg (1013 hPa)
ob: DAUH 151030Z 13008KT CAVOK 41/12 Q1013
cycle: 10

Station Type Date Time Source
DAUH TAF 2020/08/15 06:33 UTC NOAA

TAF DAUH 150500Z 1506/1606 12010KT CAVOK
BECMG 1521/1524 VRB02KT

Example: see airport list